Latest Weather Observations for Wangaratta

IDV60801

Issued at 4:52 pm EDT Sunday 5 December 2021 (issued every 10 minutes, with the page automatically refreshed every 10 minutes)

About weather observations | Map of weather stations | Latest weather observations for VIC | Other Formats
Station Details ID: 082138 Name: WANGARATTA AERO Lat: -36.42 Lon: 146.31 Height: 152.6 m
Data from the previous 72 hours. | See also: Recent months at Wangaratta
Date/Time
EDT
Temp
°C
App
Temp
°C
Dew
Point
°C
Rel
Hum
%
Delta-T
°C
Wind Press
QNH
hPa
Press
MSL
hPa
Rain since
9am
mm
Dir  Spd
km/h
Gust
km/h
Spd
kts
Gust
kts
05/04:30pm 25.8 23.1 8.8 34 9.3 ESE 13 22 7 12 1015.7 1015.2 0.0
05/04:00pm 26.2 24.4 9.5 35 9.2 NE 9 24 5 13 1015.9 1015.4 0.0
05/03:30pm 24.7 21.7 7.8 34 9.0 NE 13 24 7 13 1016.3 1015.8 0.0
05/03:00pm 25.0 21.6 9.3 37 8.6 ENE 17 28 9 15 1016.8 1016.3 0.0
05/02:30pm 23.4 20.5 9.8 42 7.5 NE 15 24 8 13 1017.2 1016.7 0.0
05/02:00pm 23.6 20.3 9.6 41 7.6 NNE 17 28 9 15 1017.4 1016.9 0.0
05/01:30pm 22.5 20.1 10.0 45 6.8 NE 13 24 7 13 1018.0 1017.6 0.0
05/01:00pm 23.2 20.7 10.9 46 6.9 NNE 15 26 8 14 1018.2 1017.8 0.0
05/12:30pm 22.9 20.1 10.0 44 7.1 ENE 15 22 8 12 1018.5 1018.0 0.0
05/12:00pm 22.0 19.6 10.2 47 6.5 NE 13 20 7 11 1018.8 1018.3 0.0
05/11:30am 21.1 18.2 9.7 48 6.2 NE 15 24 8 13 1019.1 1018.6 0.0
05/11:00am 21.4 20.3 9.9 48 6.2 NNW 6 15 3 8 1019.4 1018.9 0.0
05/10:30am 19.7 18.3 9.0 50 5.7 NNE 6 15 3 8 1019.5 1019.0 0.0
05/10:00am 19.5 17.8 8.5 49 5.7 E 7 15 4 8 1019.7 1019.2 0.0
05/09:30am 18.0 16.5 8.3 53 5.0 E 6 11 3 6 1019.8 1019.3 0.0
05/09:00am 17.3 15.2 8.4 56 4.6 SE 9 13 5 7 1019.9 1019.4 0.0
05/08:30am 15.6 13.5 8.4 62 3.7 S 9 13 5 7 1019.9 1019.4 0.0
05/08:00am 14.0 12.0 8.6 70 2.7 S 9 13 5 7 1019.6 1019.1 0.0
05/07:30am 12.1 10.5 8.8 80 1.7 SSW 7 9 4 5 1019.4 1018.9 0.0
05/07:00am 11.8 11.3 7.7 76 2.0 CALM 0 0 0 0 1018.9 1018.4 0.0
05/06:30am 11.5 9.2 7.4 76 2.0 SSW 9 11 5 6 1018.7 1018.2 0.0
05/06:00am 11.2 9.3 7.5 78 1.8 SSW 7 11 4 6 1018.2 1017.8 0.0
05/05:30am 9.9 7.8 6.8 81 1.5 S 7 9 4 5 1017.9 1017.5 0.0
05/05:00am 10.4 7.9 6.7 78 1.8 S 9 9 5 5 1017.5 1017.0 0.0
05/04:30am 10.6 8.5 6.6 76 1.9 S 7 9 4 5 1017.4 1016.9 0.0
05/04:00am 10.6 8.6 6.9 78 1.8 SSW 7 11 4 6 1017.4 1016.9 0.0
05/03:30am 10.3 7.8 6.6 78 1.7 SSW 9 13 5 7 1017.3 1016.8 0.0
05/03:00am 10.3 7.8 6.5 77 1.8 SW 9 11 5 6 1017.3 1016.8 0.0
05/02:30am 11.7 9.5 6.4 70 2.5 SSE 7 9 4 5 1017.0 1016.5 0.0
05/02:00am 12.4 9.8 6.2 66 2.9 SSW 9 11 5 6 1017.0 1016.5 0.0
05/01:30am 12.7 8.5 5.8 63 3.3 SW 17 19 9 10 1017.2 1016.7 0.0
05/01:00am 13.1 8.9 5.8 61 3.5 SW 17 22 9 12 1017.2 1016.7 0.0
05/12:30am 13.7 9.6 6.1 60 3.6 SSW 17 20 9 11 1017.2 1016.7 0.0
05/12:00am 14.1 9.9 5.7 57 4.0 SW 17 22 9 12 1017.4 1016.9 0.0
 
Date/Time
EDT
Temp
°C
App
Temp
°C
Dew
Point
°C
Rel
Hum
%
Delta-T
°C
Wind Press
QNH
hPa
Press
MSL
hPa
Rain since
9am
mm
Dir  Spd
km/h
Gust
km/h
Spd
kts
Gust
kts
04/11:30pm 14.3 10.1 5.7 56 4.1 SW 17 24 9 13 1017.4 1016.9 0.0
04/11:00pm 15.0 10.3 6.0 55 4.3 SW 20 24 11 13 1017.3 1016.8 0.0
04/10:30pm 14.9 10.5 6.5 57 4.1 SW 19 24 10 13 1017.1 1016.6 0.0
04/10:00pm 15.6 11.0 6.3 54 4.5 SW 20 26 11 14 1017.0 1016.5 0.0
04/09:30pm 16.0 11.1 6.7 54 4.6 SW 22 28 12 15 1016.6 1016.1 0.0
04/09:00pm 16.6 11.7 6.7 52 4.9 SW 22 28 12 15 1016.3 1015.8 0.0
04/08:30pm 17.5 12.2 7.0 50 5.3 SW 24 32 13 17 1016.0 1015.5 0.0
04/08:00pm 18.7 13.0 6.5 45 6.1 SW 26 37 14 20 1015.7 1015.2 0.0
04/07:30pm 19.8 12.5 5.5 39 7.1 SW 33 48 18 26 1015.2 1014.7 0.0
04/07:00pm 20.5 13.3 5.7 38 7.4 SW 33 46 18 25 1015.0 1014.5 0.0
04/06:30pm 21.2 13.7 6.3 38 7.6 SW 35 48 19 26 1014.6 1014.1 0.0
04/06:00pm 22.2 16.7 7.6 39 7.6 SW 26 35 14 19 1014.3 1013.8 0.0
04/05:30pm 22.2 15.9 7.6 39 7.6 SW 30 44 16 24 1014.1 1013.6 0.0
04/05:00pm 22.4 16.2 7.8 39 7.7 SW 30 46 16 25 1014.1 1013.6 0.0
04/04:56pm 22.2 16.2 7.2 38 7.8 SW 28 46 15 25 1014.2 1013.7 0.0
04/04:30pm 22.7 15.9 7.7 38 7.9 WSW 33 46 18 25 1014.3 1013.8 0.0
04/04:00pm 22.7 16.1 7.7 38 7.9 SW 32 43 17 23 1014.5 1014.0 0.0
04/03:30pm 23.2 16.8 8.5 39 7.9 WSW 32 44 17 24 1014.5 1014.0 0.0
04/03:00pm 22.4 16.1 7.4 38 7.8 WSW 30 43 16 23 1014.6 1014.1 0.0
04/02:30pm 22.3 16.2 6.5 36 8.1 WSW 28 39 15 21 1014.7 1014.2 0.0
04/02:00pm 22.7 16.3 6.9 36 8.2 SW 30 41 16 22 1015.1 1014.6 0.0
04/01:30pm 22.2 16.0 6.0 35 8.2 WSW 28 43 15 23 1015.3 1014.8 0.0
04/01:00pm 22.0 15.8 6.3 36 8.0 WSW 28 39 15 21 1015.5 1015.0 0.0
04/12:30pm 21.7 15.5 6.0 36 8.0 WSW 28 37 15 20 1015.7 1015.2 0.0
04/12:00pm 21.5 15.9 7.0 39 7.5 WSW 26 35 14 19 1015.8 1015.3 0.0
04/11:30am 20.2 14.2 5.1 37 7.4 WSW 26 35 14 19 1015.8 1015.3 0.0
04/11:00am 19.6 14.1 6.0 41 6.8 WSW 24 37 13 20 1015.8 1015.3 0.0
04/10:30am 19.5 14.3 7.3 45 6.2 WSW 24 32 13 17 1015.8 1015.3 0.0
04/10:00am 18.9 14.3 8.3 50 5.5 WSW 22 30 12 16 1015.7 1015.2 0.0
04/09:30am 17.4 12.7 7.7 53 4.9 WSW 22 30 12 16 1015.9 1015.4 0.0
04/09:00am 16.9 11.8 7.8 55 4.6 WSW 24 33 13 18 1016.0 1015.5 0.2
04/08:30am 15.7 10.3 8.0 60 3.9 WSW 26 35 14 19 1015.6 1015.1 0.2
04/08:00am 14.8 10.6 8.3 65 3.3 WSW 20 28 11 15 1015.3 1014.8 0.2
04/07:30am 14.3 11.6 8.9 70 2.8 SW 13 15 7 8 1014.8 1014.3 0.2
04/07:00am 13.2 10.5 8.9 75 2.2 SW 13 17 7 9 1014.6 1014.1 0.2
04/06:30am 12.3 9.6 9.0 80 1.7 SW 13 17 7 9 1014.5 1014.0 0.2
04/06:00am 12.0 8.6 9.0 82 1.5 SW 17 22 9 12 1014.3 1013.8 0.2
04/05:30am 11.6 10.1 9.2 85 1.2 WSW 7 13 4 7 1014.1 1013.6 0.2
04/05:00am 12.1 9.6 9.7 85 1.2 SW 13 17 7 9 1013.6 1013.1 0.2
04/04:30am 12.6 10.1 9.8 83 1.4 SW 13 15 7 8 1013.3 1012.8 0.2
04/04:00am 12.7 10.6 9.9 83 1.4 SW 11 15 6 8 1013.4 1012.9 0.2
04/03:30am 13.0 10.6 10.2 83 1.5 WSW 13 19 7 10 1013.4 1012.9 0.2
04/03:00am 12.9 10.6 10.3 84 1.4 WSW 13 17 7 9 1013.5 1013.0 0.2
04/02:30am 13.9 11.2 10.3 79 1.9 WSW 15 20 8 11 1013.7 1013.2 0.2
04/02:00am 14.8 11.7 10.4 75 2.3 WSW 17 22 9 12 1013.8 1013.3 0.2
04/01:30am 14.5 11.9 10.7 78 2.0 WSW 15 20 8 11 1013.9 1013.4 0.2
04/01:00am 15.7 12.8 11.1 74 2.5 WSW 17 20 9 11 1014.1 1013.6 0.2
04/12:30am 15.7 13.6 11.3 75 2.4 WSW 13 17 7 9 1014.0 1013.5 0.2
04/12:00am 16.3 13.9 11.5 73 2.6 WSW 15 20 8 11 1014.0 1013.5 0.2
 
Date/Time
EDT
Temp
°C
App
Temp
°C
Dew
Point
°C
Rel
Hum
%
Delta-T
°C
Wind Press
QNH
hPa
Press
MSL
hPa
Rain since
9am
mm
Dir  Spd
km/h
Gust
km/h
Spd
kts
Gust
kts
03/11:30pm 16.7 14.3 11.4 71 2.9 WSW 15 20 8 11 1014.1 1013.6 0.2
03/11:00pm 17.3 15.2 11.1 67 3.4 WSW 13 20 7 11 1013.9 1013.4 0.2
03/10:30pm 18.1 14.8 11.0 63 3.9 WSW 19 24 10 13 1014.0 1013.5 0.2
03/10:00pm 19.0 16.5 11.1 60 4.3 W 15 20 8 11 1013.8 1013.3 0.2
03/09:30pm 19.9 15.6 10.6 55 5.1 WSW 24 35 13 19 1013.6 1013.1 0.2
03/09:00pm 20.9 16.8 10.1 50 5.9 WSW 22 30 12 16 1013.2 1012.7 0.2
03/08:30pm 21.6 17.5 8.8 44 6.8 WSW 20 26 11 14 1013.0 1012.5 0.2
03/08:00pm 23.4 18.5 6.7 34 8.7 W 22 30 12 16 1013.1 1012.6 0.2
03/07:30pm 24.4 20.5 9.6 39 8.1 W 20 32 11 17 1012.8 1012.3 0.2
03/07:00pm 26.1 22.3 9.0 34 9.4 W 19 26 10 14 1012.4 1011.9 0.2
03/06:30pm 27.2 23.3 8.6 31 10.2 WSW 19 26 10 14 1012.3 1011.8 0.2
03/06:00pm 27.9 24.7 11.9 37 9.3 W 20 28 11 15 1012.0 1011.4 0.2
03/05:30pm 27.3 24.3 12.5 40 8.7 SW 20 30 11 16 1012.1 1011.5 0.2
03/05:00pm 28.2 26.8 13.3 40 8.9 SW 13 20 7 11 1012.2 1011.7 0.2
03/04:30pm 28.3 26.0 13.0 39 9.1 WSW 17 26 9 14 1012.4 1011.9 0.2
03/04:00pm 28.2 25.6 12.1 37 9.4 WSW 17 30 9 16 1012.5 1012.0 0.2
03/03:30pm 28.9 26.8 12.3 36 9.8 WSW 15 22 8 12 1012.9 1012.4 0.2
03/03:00pm 28.5 25.8 11.6 35 9.8 W 17 24 9 13 1013.3 1012.8 0.2
03/02:30pm 28.3 26.8 13.0 39 9.1 WSW 13 24 7 13 1013.6 1013.1 0.2
03/02:00pm 28.2 25.7 10.9 34 9.9 WSW 15 22 8 12 1013.9 1013.4 0.2
03/01:30pm 27.6 26.0 13.9 43 8.2 W 15 20 8 11 1014.2 1013.7 0.2
03/01:00pm 26.9 25.7 15.0 48 7.2 WNW 15 20 8 11 1014.5 1014.0 0.2
03/12:30pm 27.3 27.7 16.3 51 6.8 SSW 9 22 5 12 1014.7 1014.2 0.2
03/12:00pm 26.3 25.7 14.7 48 7.0 WSW 11 19 6 10 1014.9 1014.4 0.2
03/11:30am 26.1 25.3 15.2 51 6.6 WNW 13 24 7 13 1015.0 1014.5 0.2
03/11:00am 25.4 25.6 14.8 52 6.4 SSW 7 13 4 7 1015.1 1014.6 0.2
03/10:30am 24.9 24.7 14.7 53 6.1 S 9 17 5 9 1015.0 1014.5 0.2
03/10:00am 23.5 23.1 14.2 56 5.5 S 9 13 5 7 1015.2 1014.7 0.0
03/09:30am 22.9 23.2 16.0 65 4.2 S 9 13 5 7 1015.3 1014.8 0.0
03/09:00am 21.5 21.8 16.0 71 3.3 SSW 9 11 5 6 1015.2 1014.7 1.4
03/08:30am 20.6 21.0 16.2 76 2.7 SSW 9 11 5 6 1015.2 1014.7 1.4
03/08:00am 19.8 20.4 15.7 77 2.4 S 7 11 4 6 1015.0 1014.5 1.4
03/07:30am 18.9 19.1 16.7 87 1.3 SSW 11 13 6 7 1014.7 1014.2 1.4
03/07:00am 17.6 18.6 16.8 95 0.5 SSW 7 7 4 4 1014.5 1014.0 1.4
03/06:30am 16.6 17.3 16.0 96 0.4 SSW 7 9 4 5 1014.2 1013.7 1.4
03/06:00am 16.6 17.0 16.4 99 0.1 SSE 9 11 5 6 1014.0 1013.5 1.4
03/05:30am 16.5 18.6 16.2 98 0.2 CALM 0 0 0 0 1013.8 1013.3 1.4
03/05:00am 16.9 18.9 16.1 95 0.5 CALM 0 0 0 0 1013.6 1013.1 1.4
03/04:30am 17.4 18.0 16.8 96 0.4 SSW 9 13 5 7 1013.6 1013.1 1.4
03/04:00am 17.0 18.1 17.0 100 0.0 SSW 7 9 4 5 1013.4 1012.9 1.4
03/03:30am 16.9 18.9 15.9 94 0.6 CALM 0 0 0 0 1013.4 1012.9 1.4
03/03:00am 17.8 18.5 16.1 90 1.0 SSW 7 11 4 6 1013.7 1013.2 1.4
03/02:30am 18.1 18.2 17.5 96 0.4 SSW 13 15 7 8 1013.7 1013.2 1.4
03/02:00am 17.6 18.3 17.1 97 0.3 SSW 9 11 5 6 1013.6 1013.1 1.4
03/01:30am 17.7 18.6 16.2 91 0.9 SW 6 7 3 4 1013.9 1013.4 1.4
03/01:00am 18.8 19.6 16.4 86 1.4 S 7 9 4 5 1014.2 1013.7 1.4
03/12:30am 19.4 20.8 17.7 90 1.0 SSE 7 9 4 5 1014.5 1014.0 1.4
03/12:00am 19.3 20.9 18.3 94 0.6 W 7 7 4 4 1014.8 1014.3 1.4
 
Date/Time
EDT
Temp
°C
App
Temp
°C
Dew
Point
°C
Rel
Hum
%
Delta-T
°C
Wind Press
QNH
hPa
Press
MSL
hPa
Rain since
9am
mm
Dir  Spd
km/h
Gust
km/h
Spd
kts
Gust
kts
02/11:30pm 19.6 21.5 17.6 88 1.2 W 4 6 2 3 1015.1 1014.6 1.2
02/11:00pm 19.9 21.3 17.3 85 1.6 E 6 9 3 5 1014.6 1014.1 1.2
02/10:30pm 19.9 20.4 17.5 86 1.5 E 11 15 6 8 1014.3 1013.8 1.2
02/10:00pm 19.7 20.3 17.8 89 1.2 E 11 13 6 7 1014.9 1014.4 1.2
02/09:30pm 20.3 21.0 17.9 86 1.5 S 11 17 6 9 1014.9 1014.4 1.2
02/09:27pm 20.5 21.6 18.1 86 1.5 S 9 13 5 7 1014.6 1014.1 1.2
02/09:00pm 20.7 22.1 17.3 81 2.1 ESE 6 9 3 5 1012.6 1012.1 1.2
02/08:30pm 21.3 20.9 16.3 73 3.0 SW 13 19 7 10 1013.0 1012.5 1.2
02/08:22pm 20.9 20.5 17.1 79 2.3 NNW 15 26 8 14 1012.8 1012.3 1.2
02/08:01pm 21.9 22.2 16.0 69 3.6 WNW 9 13 5 7 1012.0 1011.4 0.8
02/08:00pm 21.7 22.2 16.6 73 3.1 WNW 9 13 5 7 1012.0 1011.4 0.8
02/07:30pm 21.8 22.3 16.5 72 3.2 S 9 15 5 8 1011.1 1010.6 0.8
02/07:00pm 22.2 21.2 14.6 62 4.5 E 13 19 7 10 1011.3 1010.8 0.8
02/06:59pm 22.1 21.1 14.5 62 4.5 E 13 22 7 12 1011.4 1010.9 0.8
02/06:30pm 26.6 22.8 12.3 41 8.3 WSW 24 50 13 27 1011.4 1010.9 0.0
02/06:27pm 27.7 25.6 11.3 36 9.4 NW 13 50 7 27 1011.3 1010.8 0.0
02/06:21pm 30.4 29.9 12.8 34 10.5 NNE 7 11 4 6 1010.3 1009.8 0.0
02/06:00pm 31.1 30.2 13.8 34 10.5 NNE 11 15 6 8 1010.5 1010.0 0.0
02/05:30pm 31.8 29.9 10.5 27 12.3 NNE 11 17 6 9 1010.9 1010.4 0.0
02/05:00pm 31.9 28.6 9.4 25 12.8 NNE 17 26 9 14 1011.2 1010.7 0.0

Other formats

Comma delimited format used in spreadsheet applications
http://www.bom.gov.au/fwo/IDV60801/IDV60801.94889.axf

JavaScript Object Notation format (JSON) in row-major order
http://www.bom.gov.au/fwo/IDV60801/IDV60801.94889.json

Data quality

Most of these data are generated automatically and are frequently updated. Quality checks on data are not normally performed. It is possible for incorrect values to appear. Refer to information at About Latest Weather Observations and please check the disclaimer before using these data.